Time;durP1;ratioP1;P1;durP2;ratioP2;P2;SDS_P1;SDS_P2;PMS_P1;PMS_P2;Temp;Humidity;BMP_temperature;BMP_pressure;BME280_temperature;BME280_humidity;BME280_pressure;Samples;Min_cycle;Max_cycle;Signal;HPM_P1;HPM_P2
2022/04/16 00:01:28;;;;;;;3.78;2.45;;;16.00;96.70;;;;;;5060182;28;20067;-81
2022/04/16 00:03:56;;;;;;;2.83;1.90;;;16.10;96.70;;;;;;5066895;28;20489;-80
2022/04/16 00:06:25;;;;;;;4.32;2.17;;;15.90;96.70;;;;;;5068361;28;20617;-80
2022/04/16 00:08:52;;;;;;;4.10;2.20;;;15.90;96.70;;;;;;5078418;28;20070;-81
2022/04/16 00:11:27;;;;;;;5.80;2.17;;;15.80;96.70;;;;;;5076730;28;20581;-81
2022/04/16 00:13:55;;;;;;;3.13;1.75;;;15.80;96.70;;;;;;5085061;28;20040;-80
2022/04/16 00:16:27;;;;;;;4.00;2.10;;;15.80;96.70;;;;;;5086773;28;20094;-81
2022/04/16 00:18:56;;;;;;;3.38;2.25;;;15.70;96.70;;;;;;5084989;28;20048;-81
2022/04/16 00:21:24;;;;;;;4.28;1.55;;;15.70;96.70;;;;;;5085460;28;20044;-80
2022/04/16 00:23:53;;;;;;;4.70;1.85;;;15.60;96.70;;;;;;5085929;28;20040;-81
2022/04/16 00:26:21;;;;;;;5.40;2.38;;;15.60;96.70;;;;;;5079969;28;20044;-81
2022/04/16 00:28:51;;;;;;;3.03;2.00;;;15.60;96.70;;;;;;5076415;28;20070;-81
2022/04/16 00:31:19;;;;;;;2.78;1.70;;;15.60;96.70;;;;;;5079711;28;20131;-81
2022/04/16 00:33:47;;;;;;;2.55;1.67;;;15.60;96.70;;;;;;5078627;28;20040;-81
2022/04/16 00:36:16;;;;;;;2.67;2.30;;;15.50;96.70;;;;;;5088309;28;20043;-81
2022/04/16 00:38:44;;;;;;;4.03;1.40;;;15.30;96.70;;;;;;5084064;28;20040;-80
2022/04/16 00:41:13;;;;;;;3.45;1.70;;;15.30;96.70;;;;;;5090071;28;20047;-80
2022/04/16 00:43:42;;;;;;;3.03;1.75;;;15.30;96.70;;;;;;5090959;28;20069;-81
2022/04/16 00:46:12;;;;;;;2.65;1.73;;;15.30;96.70;;;;;;5089743;28;20048;-80
2022/04/16 00:48:40;;;;;;;3.05;1.80;;;15.30;96.70;;;;;;5089478;28;20469;-80
2022/04/16 00:51:08;;;;;;;2.53;1.58;;;15.20;96.70;;;;;;5081368;28;20582;-80
2022/04/16 00:53:36;;;;;;;2.40;1.70;;;15.20;96.70;;;;;;5086888;28;20122;-81
2022/04/16 00:56:06;;;;;;;4.43;1.70;;;15.20;96.70;;;;;;5072663;28;20090;-81
2022/04/16 00:58:34;;;;;;;3.30;2.00;;;15.20;96.70;;;;;;5085983;28;20522;-80
2022/04/16 01:01:02;;;;;;;3.60;2.13;;;15.20;96.70;;;;;;5079264;28;20454;-81
2022/04/16 01:03:31;;;;;;;4.97;1.75;;;15.20;96.70;;;;;;5090559;28;20473;-81
2022/04/16 01:05:59;;;;;;;4.25;2.00;;;15.20;96.70;;;;;;5081987;28;20876;-81
2022/04/16 01:08:28;;;;;;;5.25;2.40;;;15.00;96.70;;;;;;5087804;28;20048;-81
2022/04/16 01:10:56;;;;;;;3.70;1.75;;;15.00;96.70;;;;;;5085724;28;20055;-81
2022/04/16 01:13:29;;;;;;;2.83;1.80;;;15.00;96.70;;;;;;5088237;28;20040;-80
2022/04/16 01:15:57;;;;;;;1.95;1.75;;;15.00;96.70;;;;;;5087529;28;20631;-81
2022/04/16 01:18:25;;;;;;;3.40;2.20;;;14.90;96.70;;;;;;5089740;28;20097;-80
2022/04/16 01:20:55;;;;;;;3.72;2.00;;;14.80;96.70;;;;;;5080672;28;20743;-81
2022/04/16 01:23:24;;;;;;;2.63;1.88;;;14.90;96.70;;;;;;5084636;28;20053;-81
2022/04/16 01:25:52;;;;;;;3.10;1.38;;;14.80;96.70;;;;;;5086149;28;20066;-80
2022/04/16 01:28:20;;;;;;;2.53;1.63;;;15.00;96.70;;;;;;5087773;28;20514;-81
2022/04/16 01:30:48;;;;;;;3.53;2.20;;;15.20;96.70;;;;;;5078747;28;20051;-80
2022/04/16 01:33:17;;;;;;;4.35;2.13;;;15.30;96.70;;;;;;5089203;28;20385;-80
2022/04/16 01:35:45;;;;;;;4.15;1.90;;;15.20;96.70;;;;;;5080362;28;20055;-81
2022/04/16 01:38:13;;;;;;;4.28;1.90;;;15.00;96.70;;;;;;5087580;28;20048;-81
2022/04/16 01:40:43;;;;;;;3.20;2.00;;;14.80;96.70;;;;;;5078461;28;20044;-80
2022/04/16 01:43:11;;;;;;;2.67;1.90;;;14.70;96.70;;;;;;5079928;28;20044;-81
2022/04/16 01:45:39;;;;;;;2.58;2.22;;;14.70;96.70;;;;;;5070494;28;20490;-81
2022/04/16 01:48:08;;;;;;;5.03;2.83;;;14.60;96.70;;;;;;5081756;28;20056;-77
2022/04/16 01:50:37;;;;;;;4.07;1.90;;;14.60;96.70;;;;;;5083941;28;20075;-81
2022/04/16 01:53:06;;;;;;;3.72;2.47;;;14.60;96.70;;;;;;5067626;28;20052;-81
2022/04/16 01:55:34;;;;;;;7.13;2.97;;;14.50;96.70;;;;;;5088655;28;20043;-81
2022/04/16 01:58:05;;;;;;;3.53;2.13;;;14.40;96.70;;;;;;5087950;28;20074;-80
2022/04/16 02:00:35;;;;;;;5.13;2.22;;;14.50;96.70;;;;;;5077103;28;20055;-81
2022/04/16 02:03:04;;;;;;;2.75;2.20;;;14.50;96.70;;;;;;5066975;28;20055;-77
2022/04/16 02:05:32;;;;;;;5.05;1.77;;;14.50;96.70;;;;;;5081475;28;20070;-77
2022/04/16 02:08:00;;;;;;;4.03;1.70;;;14.40;96.70;;;;;;5077663;28;20040;-77
2022/04/16 02:10:28;;;;;;;2.10;1.50;;;14.30;96.70;;;;;;5079462;28;20055;-77
2022/04/16 02:12:56;;;;;;;3.28;1.60;;;14.30;96.70;;;;;;5082873;28;20050;-77
2022/04/16 02:15:26;;;;;;;2.58;1.65;;;14.30;96.70;;;;;;5067160;28;20422;-77
2022/04/16 02:17:56;;;;;;;3.30;1.73;;;14.30;96.70;;;;;;5082720;28;20542;-77
2022/04/16 02:20:24;;;;;;;2.92;1.80;;;14.40;96.70;;;;;;5083973;28;20040;-77
2022/04/16 02:22:52;;;;;;;4.50;1.60;;;14.30;96.70;;;;;;5065489;28;20460;-76
2022/04/16 02:25:21;;;;;;;2.28;1.60;;;14.30;96.70;;;;;;5078478;28;20056;-77
2022/04/16 02:27:49;;;;;;;2.47;1.40;;;14.20;96.70;;;;;;5084283;28;20044;-77
2022/04/16 02:30:18;;;;;;;2.80;1.60;;;14.20;96.70;;;;;;5078618;28;20050;-77
2022/04/16 02:32:52;;;;;;;4.47;1.65;;;14.20;96.70;;;;;;5082560;28;20036;-76
2022/04/16 02:35:21;;;;;;;2.90;1.60;;;14.20;96.70;;;;;;5077433;28;20086;-78
2022/04/16 02:37:49;;;;;;;4.57;1.77;;;14.10;96.70;;;;;;5073973;28;20043;-77
2022/04/16 02:40:17;;;;;;;3.05;1.42;;;14.20;96.70;;;;;;5076877;28;20254;-77
2022/04/16 02:42:46;;;;;;;2.20;1.40;;;14.10;96.70;;;;;;5082449;28;20046;-77
2022/04/16 02:48:04;;;;;;;2.63;1.65;;;14.00;96.70;;;;;;5080755;28;20048;-77
2022/04/16 02:50:33;;;;;;;2.83;1.67;;;13.90;96.70;;;;;;5082377;28;20052;-77
2022/04/16 02:53:02;;;;;;;1.85;1.35;;;13.90;96.70;;;;;;5079491;28;20051;-78
2022/04/16 02:55:30;;;;;;;3.25;1.58;;;13.90;96.70;;;;;;5080656;28;20048;-77
2022/04/16 02:57:58;;;;;;;2.65;1.40;;;13.90;96.70;;;;;;5080661;28;20340;-77
2022/04/16 03:00:26;;;;;;;3.45;1.80;;;13.90;96.70;;;;;;5080318;28;20127;-77
2022/04/16 03:02:54;;;;;;;5.05;1.65;;;13.90;96.70;;;;;;5078469;28;20425;-77
2022/04/16 03:05:23;;;;;;;2.58;1.60;;;13.90;96.70;;;;;;5077141;28;20394;-77
2022/04/16 03:07:51;;;;;;;5.47;1.77;;;13.90;96.70;;;;;;5079755;28;20505;-77
2022/04/16 03:10:19;;;;;;;2.90;1.50;;;13.80;96.70;;;;;;5080073;28;20052;-77
2022/04/16 03:12:48;;;;;;;3.45;1.30;;;13.70;96.70;;;;;;5078898;28;20044;-77
2022/04/16 03:18:07;;;;;;;3.05;1.75;;;13.60;96.70;;;;;;5077401;28;20040;-77
2022/04/16 03:20:37;;;;;;;2.72;1.60;;;13.50;96.70;;;;;;5081439;28;20136;-77
2022/04/16 03:23:05;;;;;;;2.33;1.40;;;13.50;96.70;;;;;;5062581;28;20044;-77
2022/04/16 03:25:33;;;;;;;2.08;1.30;;;13.60;96.70;;;;;;5081568;28;20105;-77
2022/04/16 03:28:03;;;;;;;3.25;1.95;;;13.60;96.70;;;;;;5078073;28;20051;-77
2022/04/16 03:30:31;;;;;;;3.67;1.73;;;13.50;96.70;;;;;;5074195;28;20077;-77
2022/04/16 03:32:59;;;;;;;2.92;1.60;;;13.50;96.70;;;;;;5077090;28;20550;-77
2022/04/16 03:35:27;;;;;;;1.60;1.30;;;13.60;96.70;;;;;;5063826;28;20051;-77
2022/04/16 03:37:57;;;;;;;2.85;1.40;;;13.60;96.70;;;;;;5079766;28;20668;-77
2022/04/16 03:40:26;;;;;;;2.05;1.50;;;13.50;96.70;;;;;;5081053;28;20044;-77
2022/04/16 03:42:58;;;;;;;2.33;1.52;;;13.50;96.70;;;;;;5079093;28;20456;-77
2022/04/16 03:45:28;;;;;;;3.97;1.80;;;13.50;96.70;;;;;;5080504;28;20506;-76
2022/04/16 03:47:57;;;;;;;1.80;1.50;;;13.40;96.70;;;;;;5076434;28;20093;-77
2022/04/16 03:50:26;;;;;;;2.80;1.73;;;13.40;96.70;;;;;;5080924;28;20429;-76
2022/04/16 03:52:56;;;;;;;2.75;1.73;;;13.40;96.70;;;;;;5078425;28;20168;-77
2022/04/16 04:01:01;;;;;;;3.58;1.70;;;13.40;96.70;;;;;;5083869;28;20593;-77
2022/04/16 04:03:30;;;;;;;2.50;1.60;;;13.40;96.70;;;;;;5087238;28;20117;-77
2022/04/16 04:06:00;;;;;;;2.63;1.70;;;13.40;96.70;;;;;;5083909;28;20048;-77
2022/04/16 04:08:31;;;;;;;3.75;1.73;;;13.20;96.70;;;;;;5075323;28;20102;-77
2022/04/16 04:10:59;;;;;;;2.90;1.50;;;13.10;96.70;;;;;;5079649;28;20137;-77
2022/04/16 04:13:27;;;;;;;3.47;1.50;;;13.10;96.70;;;;;;5068788;28;20130;-77
2022/04/16 04:15:55;;;;;;;2.10;1.45;;;13.00;96.70;;;;;;5080962;28;20040;-77
2022/04/16 04:18:24;;;;;;;2.55;1.42;;;13.00;96.70;;;;;;5084934;28;20032;-76
2022/04/16 04:20:53;;;;;;;4.82;2.47;;;13.00;96.70;;;;;;5081490;28;20051;-77
2022/04/16 04:23:22;;;;;;;2.60;1.70;;;12.80;96.70;;;;;;5079814;28;20048;-77
2022/04/16 04:25:52;;;;;;;4.53;1.73;;;12.90;96.70;;;;;;5082248;28;20398;-77
2022/04/16 04:28:20;;;;;;;3.97;1.90;;;12.90;96.70;;;;;;5085625;28;20127;-77
2022/04/16 04:30:48;;;;;;;3.42;1.95;;;12.90;96.70;;;;;;5069270;28;20090;-77
2022/04/16 04:33:16;;;;;;;4.88;2.35;;;12.90;96.70;;;;;;5083738;28;20159;-76
2022/04/16 04:35:44;;;;;;;5.20;2.22;;;12.80;96.70;;;;;;5083946;28;20066;-77
2022/04/16 04:38:12;;;;;;;4.13;2.67;;;12.80;96.70;;;;;;5081949;28;20040;-77
2022/04/16 04:40:39;;;;;;;3.85;2.08;;;12.80;96.70;;;;;;5084608;28;20115;-77
2022/04/16 04:43:09;;;;;;;4.15;2.47;;;12.80;96.70;;;;;;5084217;28;20048;-77
2022/04/16 04:45:37;;;;;;;4.18;2.53;;;12.80;96.70;;;;;;5083331;28;20603;-77
2022/04/16 04:48:05;;;;;;;5.50;2.53;;;12.80;96.70;;;;;;5085370;28;20062;-77
2022/04/16 04:50:36;;;;;;;4.88;2.65;;;12.80;96.70;;;;;;5067633;28;20044;-77
2022/04/16 04:53:04;;;;;;;4.20;2.65;;;12.70;96.70;;;;;;5083092;28;20414;-76
2022/04/16 04:55:32;;;;;;;3.67;2.53;;;12.80;96.70;;;;;;5072453;28;20055;-77
2022/04/16 04:57:59;;;;;;;5.88;2.03;;;12.80;96.70;;;;;;5067277;28;20067;-77
2022/04/16 05:00:29;;;;;;;3.67;2.08;;;12.90;96.70;;;;;;5085699;28;20548;-77
2022/04/16 05:02:57;;;;;;;2.58;2.03;;;12.90;96.70;;;;;;5080915;28;20450;-77
2022/04/16 05:05:25;;;;;;;2.58;1.77;;;12.90;96.70;;;;;;5083779;28;20493;-77
2022/04/16 05:07:52;;;;;;;5.88;2.15;;;13.00;96.70;;;;;;5084410;28;20040;-77
2022/04/16 05:10:22;;;;;;;6.13;2.25;;;13.10;96.70;;;;;;5076596;28;20407;-77
2022/04/16 05:12:49;;;;;;;3.50;2.15;;;13.20;96.70;;;;;;5099521;28;20052;-77
2022/04/16 05:15:17;;;;;;;3.30;1.80;;;13.30;96.70;;;;;;5085455;28;20039;-77
2022/04/16 05:17:47;;;;;;;3.88;1.98;;;13.20;96.70;;;;;;5096771;27;20101;-77
2022/04/16 05:20:15;;;;;;;3.85;2.00;;;13.30;96.70;;;;;;5067215;28;20048;-77
2022/04/16 05:22:43;;;;;;;3.33;1.98;;;13.40;96.70;;;;;;5082279;28;20044;-77
2022/04/16 05:25:10;;;;;;;3.92;2.10;;;13.30;96.70;;;;;;5084378;28;20151;-77
2022/04/16 05:27:38;;;;;;;3.10;1.90;;;13.40;96.70;;;;;;5083626;28;20043;-77
2022/04/16 05:30:13;;;;;;;3.78;1.70;;;13.40;96.70;;;;;;5082597;28;20437;-77
2022/04/16 05:32:42;;;;;;;4.53;2.20;;;13.50;96.70;;;;;;5084216;28;20069;-75
2022/04/16 05:35:12;;;;;;;4.47;2.30;;;13.50;96.70;;;;;;5083392;28;20093;-77
2022/04/16 05:37:40;;;;;;;2.45;2.20;;;13.50;96.70;;;;;;5082760;28;20051;-76
2022/04/16 05:40:10;;;;;;;5.47;2.83;;;13.60;96.70;;;;;;5083902;28;20464;-77
2022/04/16 05:42:42;;;;;;;4.47;2.58;;;13.80;96.70;;;;;;5078407;28;20135;-77
2022/04/16 05:45:14;;;;;;;5.88;2.28;;;13.90;96.70;;;;;;5077640;28;20051;-78
2022/04/16 05:47:43;;;;;;;5.13;2.40;;;13.90;96.70;;;;;;5063756;28;20142;-77
2022/04/16 05:50:14;;;;;;;3.42;2.20;;;13.90;96.70;;;;;;5076325;28;20786;-77
2022/04/16 05:52:42;;;;;;;5.82;2.30;;;14.00;96.70;;;;;;5077792;28;20036;-77
2022/04/16 05:55:11;;;;;;;5.75;2.72;;;14.00;96.70;;;;;;5081835;28;20089;-77
2022/04/16 05:57:39;;;;;;;3.95;2.10;;;13.90;96.70;;;;;;5080559;28;20117;-77
2022/04/16 06:00:12;;;;;;;5.63;2.13;;;13.70;96.70;;;;;;5065580;28;20047;-75
2022/04/16 06:02:42;;;;;;;4.03;2.22;;;13.60;96.70;;;;;;5072301;28;20395;-77
2022/04/16 06:05:10;;;;;;;3.50;2.38;;;13.50;96.70;;;;;;5084291;28;20040;-76
2022/04/16 06:07:40;;;;;;;3.45;2.15;;;13.60;96.70;;;;;;5084486;28;20052;-77
2022/04/16 06:10:08;;;;;;;4.10;2.35;;;13.70;96.70;;;;;;5082786;28;20060;-77
2022/04/16 06:12:36;;;;;;;3.33;2.45;;;13.80;96.70;;;;;;5080594;28;20047;-77
2022/04/16 06:15:05;;;;;;;3.50;2.70;;;13.70;96.70;;;;;;5082442;28;20040;-79
2022/04/16 06:17:33;;;;;;;4.05;2.28;;;13.80;96.70;;;;;;5074261;28;20054;-76
2022/04/16 06:20:01;;;;;;;4.47;2.88;;;13.90;96.70;;;;;;5077669;28;20530;-76
2022/04/16 06:22:29;;;;;;;5.60;2.95;;;14.00;96.70;;;;;;5081879;28;20047;-76
2022/04/16 06:24:58;;;;;;;4.03;2.40;;;14.20;96.70;;;;;;5062604;28;20047;-76
2022/04/16 06:27:33;;;;;;;5.03;2.63;;;14.20;96.70;;;;;;5066698;28;20052;-76
2022/04/16 06:30:02;;;;;;;3.80;2.58;;;14.20;96.70;;;;;;5078936;28;20051;-77
2022/04/16 06:32:30;;;;;;;5.90;2.75;;;14.30;96.70;;;;;;5082047;28;20052;-76
2022/04/16 06:34:57;;;;;;;4.60;2.67;;;14.40;96.70;;;;;;5076218;28;20037;-76
2022/04/16 06:37:26;;;;;;;3.72;2.90;;;14.40;96.70;;;;;;5064320;28;20492;-76
2022/04/16 06:39:54;;;;;;;2.75;2.35;;;14.60;96.70;;;;;;5082282;28;20516;-77
2022/04/16 06:42:23;;;;;;;4.03;2.78;;;14.80;96.70;;;;;;5078640;28;20056;-77
2022/04/16 06:44:51;;;;;;;5.45;2.75;;;14.80;96.70;;;;;;5062357;28;20445;-77
2022/04/16 06:47:19;;;;;;;4.78;2.67;;;14.80;96.70;;;;;;5081955;28;20428;-77
2022/04/16 06:49:47;;;;;;;5.68;2.92;;;14.80;96.70;;;;;;5062353;28;20079;-77
2022/04/16 06:52:18;;;;;;;6.00;3.35;;;15.00;96.70;;;;;;5080326;28;20113;-77
2022/04/16 06:54:47;;;;;;;3.63;2.65;;;15.10;96.70;;;;;;5063906;28;20052;-76
2022/04/16 06:57:15;;;;;;;6.90;2.80;;;15.10;96.70;;;;;;5081146;28;20044;-76
2022/04/16 06:59:44;;;;;;;5.28;2.85;;;15.30;96.70;;;;;;5074309;28;20054;-76
2022/04/16 07:02:13;;;;;;;5.03;3.03;;;15.40;96.70;;;;;;5080510;28;20046;-77
2022/04/16 07:04:41;;;;;;;4.53;2.92;;;15.50;96.70;;;;;;5077433;28;20766;-76
2022/04/16 07:07:10;;;;;;;6.47;3.20;;;15.70;96.70;;;;;;5080793;28;20459;-76
2022/04/16 07:09:38;;;;;;;4.88;3.10;;;15.70;96.70;;;;;;5080383;28;20570;-76
2022/04/16 07:12:10;;;;;;;4.13;2.83;;;15.80;96.70;;;;;;5080744;28;20054;-77
2022/04/16 07:14:39;;;;;;;5.47;3.60;;;15.90;96.70;;;;;;5067436;28;20134;-76
2022/04/16 07:17:08;;;;;;;7.68;3.97;;;15.90;96.70;;;;;;5079531;28;20036;-77
2022/04/16 07:19:37;;;;;;;5.57;3.28;;;15.90;96.70;;;;;;5083948;28;20043;-85
2022/04/16 07:22:06;;;;;;;5.55;3.35;;;16.00;96.70;;;;;;5078464;28;20051;-85
2022/04/16 07:24:42;;;;;;;8.30;3.58;;;16.10;96.70;;;;;;5086414;28;20071;-85
2022/04/16 07:27:11;;;;;;;5.47;3.30;;;16.20;96.70;;;;;;5064950;28;20402;-84
2022/04/16 07:29:42;;;;;;;7.18;4.35;;;16.30;96.70;;;;;;5087114;28;20036;-86
2022/04/16 07:32:13;;;;;;;10.48;4.43;;;16.50;96.70;;;;;;5084585;28;20084;-85
2022/04/16 07:34:45;;;;;;;6.63;3.88;;;16.50;96.70;;;;;;5086124;28;20056;-87
2022/04/16 07:37:13;;;;;;;7.30;4.20;;;16.70;96.70;;;;;;5089871;28;20090;-79
2022/04/16 07:39:41;;;;;;;8.02;4.47;;;16.80;96.70;;;;;;5085179;28;20466;-81
2022/04/16 07:42:09;;;;;;;8.10;4.68;;;16.90;96.70;;;;;;5080713;28;20066;-79
2022/04/16 07:44:37;;;;;;;8.52;4.00;;;17.00;96.70;;;;;;5084147;28;20051;-80
2022/04/16 07:47:06;;;;;;;7.40;3.70;;;17.10;96.70;;;;;;5081290;28;20797;-80
2022/04/16 07:49:35;;;;;;;5.95;3.63;;;17.20;96.70;;;;;;5060028;28;20049;-82
2022/04/16 07:52:04;;;;;;;7.20;3.58;;;17.30;96.70;;;;;;5083235;28;20592;-82
2022/04/16 07:54:32;;;;;;;6.93;3.42;;;17.50;96.70;;;;;;5082058;28;20541;-83
2022/04/16 07:57:00;;;;;;;6.88;3.58;;;17.70;96.70;;;;;;5080565;28;20048;-83
2022/04/16 07:59:29;;;;;;;9.98;3.63;;;17.80;96.70;;;;;;5065721;28;20133;-79
2022/04/16 08:01:57;;;;;;;7.65;3.75;;;18.10;96.70;;;;;;5080935;28;20040;-83
2022/04/16 08:04:25;;;;;;;5.13;2.58;;;18.20;96.70;;;;;;5067908;28;20046;-85
2022/04/16 08:06:55;;;;;;;8.43;4.38;;;18.30;96.70;;;;;;5082084;28;20504;-79
2022/04/16 08:09:23;;;;;;;8.25;5.57;;;18.50;96.70;;;;;;5061139;28;20455;-79
2022/04/16 08:11:51;;;;;;;5.45;3.22;;;18.60;96.70;;;;;;5084739;28;20319;-79
2022/04/16 08:14:20;;;;;;;4.07;2.80;;;18.70;96.70;;;;;;5084100;28;20042;-80
2022/04/16 08:16:48;;;;;;;4.32;2.58;;;18.80;96.70;;;;;;5077938;28;20797;-81
2022/04/16 08:19:16;;;;;;;6.15;2.92;;;19.00;96.70;;;;;;5084322;28;20063;-80
2022/04/16 08:21:45;;;;;;;6.57;2.60;;;19.00;96.70;;;;;;5059409;28;20058;-80
2022/04/16 08:24:38;;;;;;;5.97;2.88;;;19.10;96.70;;;;;;5065687;28;20092;-76
2022/04/16 08:27:04;;;;;;;4.82;2.92;;;19.30;96.70;;;;;;5082926;28;20076;-81
2022/04/16 08:29:33;;;;;;;6.82;3.08;;;19.40;96.70;;;;;;5061588;28;20141;-80
2022/04/16 08:32:01;;;;;;;6.78;2.65;;;19.50;96.70;;;;;;5082026;28;20044;-80
2022/04/16 08:34:49;;;;;;;9.90;2.55;;;19.70;96.70;;;;;;5078236;28;20044;-81
2022/04/16 08:37:18;;;;;;;6.35;3.28;;;19.80;96.70;;;;;;5084057;28;20040;-80
2022/04/16 08:39:47;;;;;;;5.00;3.63;;;19.90;96.70;;;;;;5082056;28;20040;-81
2022/04/16 08:42:16;;;;;;;4.68;2.60;;;20.00;96.70;;;;;;5064650;28;20059;-81
2022/04/16 08:44:44;;;;;;;5.05;2.15;;;20.30;96.70;;;;;;5058901;28;20102;-80
2022/04/16 08:47:13;;;;;;;4.22;2.35;;;20.40;96.70;;;;;;5082462;28;20132;-80
2022/04/16 08:49:44;;;;;;;5.47;2.20;;;20.60;96.70;;;;;;5074689;28;20560;-80
2022/04/16 08:52:12;;;;;;;4.35;2.13;;;20.70;96.70;;;;;;5083521;28;20040;-81
2022/04/16 08:54:41;;;;;;;3.00;1.80;;;21.00;96.70;;;;;;5080710;28;20120;-82
2022/04/16 08:57:10;;;;;;;5.20;1.75;;;21.10;96.70;;;;;;5088479;28;20040;-86
2022/04/16 08:59:39;;;;;;;3.05;1.85;;;21.30;96.70;;;;;;5084379;28;20584;-86
2022/04/16 09:02:08;;;;;;;3.28;1.60;;;21.40;96.70;;;;;;5066222;28;20049;-83
2022/04/16 09:04:36;;;;;;;2.67;1.70;;;21.50;96.30;;;;;;5086508;28;20536;-84
2022/04/16 09:07:05;;;;;;;4.97;1.85;;;21.60;95.70;;;;;;5071148;28;20099;-82
2022/04/16 09:09:34;;;;;;;4.90;1.67;;;21.80;94.90;;;;;;5081606;28;20051;-86
2022/04/16 09:12:03;;;;;;;1.60;1.50;;;21.70;95.00;;;;;;5065400;28;20046;-84
2022/04/16 09:14:42;;;;;;;3.00;1.63;;;21.70;94.10;;;;;;5071911;28;20055;-84
2022/04/16 09:17:15;;;;;;;3.47;1.50;;;21.70;94.10;;;;;;5084352;28;20444;-85
2022/04/16 09:19:51;;;;;;;3.78;2.00;;;21.70;93.90;;;;;;5067453;28;20097;-80
2022/04/16 09:22:30;;;;;;;5.07;1.80;;;21.90;94.30;;;;;;5078898;28;20098;-83
2022/04/16 09:24:58;;;;;;;4.55;1.60;;;22.00;92.80;;;;;;5080779;28;20072;-83
2022/04/16 09:27:27;;;;;;;3.78;1.90;;;22.00;92.90;;;;;;5086335;28;20541;-83
2022/04/16 09:29:57;;;;;;;2.28;1.60;;;21.90;93.10;;;;;;5078672;28;20044;-82
2022/04/16 09:32:25;;;;;;;4.03;1.67;;;21.90;93.30;;;;;;5085499;28;20071;-82
2022/04/16 09:34:53;;;;;;;2.15;1.40;;;22.00;93.20;;;;;;5066677;28;20514;-81
2022/04/16 09:37:24;;;;;;;4.25;1.80;;;22.10;93.10;;;;;;5081767;28;20067;-80
2022/04/16 09:39:52;;;;;;;3.30;1.60;;;22.30;93.40;;;;;;5084430;28;20667;-79
2022/04/16 09:42:27;;;;;;;4.72;1.60;;;22.40;93.70;;;;;;5081227;28;20054;-82
2022/04/16 09:44:57;;;;;;;3.30;1.92;;;22.40;92.00;;;;;;5085132;28;20143;-82
2022/04/16 09:47:26;;;;;;;3.85;1.70;;;22.30;91.40;;;;;;5081339;28;20102;-83
2022/04/16 09:49:55;;;;;;;3.10;1.30;;;22.40;92.40;;;;;;5092364;28;20045;-81
2022/04/16 09:52:24;;;;;;;5.38;1.73;;;22.80;91.20;;;;;;5074985;28;20037;-82
2022/04/16 09:54:55;;;;;;;3.35;1.80;;;23.10;90.70;;;;;;5078667;28;20044;-83
2022/04/16 09:57:28;;;;;;;2.90;1.58;;;23.20;89.70;;;;;;5076839;28;20052;-85
2022/04/16 10:00:04;;;;;;;4.30;1.48;;;23.30;90.10;;;;;;5084570;28;20060;-82
2022/04/16 10:02:41;;;;;;;3.80;1.50;;;23.40;89.50;;;;;;5082671;28;20110;-79
2022/04/16 10:05:12;;;;;;;3.33;1.70;;;23.60;89.40;;;;;;5081845;28;20053;-79
2022/04/16 10:07:43;;;;;;;2.03;1.67;;;23.80;88.00;;;;;;5082100;28;20040;-80
2022/04/16 10:10:18;;;;;;;6.97;4.95;;;23.80;87.60;;;;;;5083594;28;20047;-80
2022/04/16 10:13:03;;;;;;;2.92;1.75;;;23.70;88.20;;;;;;5084573;28;20052;-79
2022/04/16 10:16:01;;;;;;;3.45;1.77;;;23.70;88.20;;;;;;5074606;28;20130;-81
2022/04/16 10:18:34;;;;;;;3.72;1.75;;;23.80;87.40;;;;;;5080735;28;20498;-81
2022/04/16 10:21:03;;;;;;;4.20;1.65;;;23.70;87.60;;;;;;5075850;28;20044;-80
2022/04/16 10:23:39;;;;;;;2.05;1.48;;;24.10;87.50;;;;;;5082937;28;20048;-80
2022/04/16 10:26:09;;;;;;;2.15;1.40;;;24.30;87.40;;;;;;5076307;28;20539;-79
2022/04/16 10:28:41;;;;;;;6.15;1.73;;;24.40;87.10;;;;;;5086837;28;20131;-82
2022/04/16 10:31:22;;;;;;;5.07;1.60;;;23.90;86.60;;;;;;5083535;28;20124;-82
2022/04/16 10:33:59;;;;;;;1.67;1.27;;;23.80;87.30;;;;;;5058234;28;20411;-81
2022/04/16 10:36:32;;;;;;;2.25;1.40;;;24.10;87.40;;;;;;5082301;28;20048;-80
2022/04/16 10:39:01;;;;;;;4.43;1.20;;;24.30;87.00;;;;;;5084195;28;20946;-80
2022/04/16 10:41:29;;;;;;;5.72;1.67;;;24.20;86.20;;;;;;5084616;28;20040;-81
2022/04/16 10:44:01;;;;;;;4.10;1.33;;;24.10;86.20;;;;;;5050578;28;20228;-82
2022/04/16 10:46:48;;;;;;;2.35;1.33;;;24.00;86.50;;;;;;5082064;28;20050;-82
2022/04/16 10:49:17;;;;;;;1.85;1.33;;;24.20;86.50;;;;;;5056707;28;20052;-81
2022/04/16 10:51:45;;;;;;;3.25;1.50;;;24.40;85.90;;;;;;5083033;28;20060;-82
2022/04/16 10:54:15;;;;;;;3.78;1.73;;;24.60;86.10;;;;;;5080610;28;20044;-82
2022/04/16 10:56:51;;;;;;;3.97;1.65;;;25.10;85.30;;;;;;5079908;28;20051;-82
2022/04/16 10:59:37;;;;;;;2.45;1.42;;;25.30;85.10;;;;;;5067431;28;20106;-83
2022/04/16 11:02:19;;;;;;;2.60;1.50;;;25.20;84.40;;;;;;5080473;28;20070;-83
2022/04/16 11:05:00;;;;;;;2.20;1.40;;;25.20;83.90;;;;;;5082105;28;20052;-82
2022/04/16 11:07:29;;;;;;;3.70;2.22;;;25.30;83.00;;;;;;5067255;28;20048;-80
2022/04/16 11:09:58;;;;;;;11.85;8.77;;;25.30;83.40;;;;;;5084368;28;20036;-82
2022/04/16 11:12:26;;;;;;;3.05;1.95;;;25.30;84.10;;;;;;5082721;28;20051;-81
2022/04/16 11:14:54;;;;;;;2.88;1.40;;;25.20;84.00;;;;;;5082036;28;20060;-81
2022/04/16 11:17:24;;;;;;;4.25;2.05;;;25.10;84.80;;;;;;5058283;28;20075;-80
2022/04/16 11:20:00;;;;;;;2.00;1.35;;;25.10;84.60;;;;;;5084171;28;20049;-81
2022/04/16 11:22:29;;;;;;;3.53;1.60;;;25.00;84.20;;;;;;5075895;28;20049;-80
2022/04/16 11:24:58;;;;;;;3.00;1.70;;;25.20;83.80;;;;;;5068355;28;20645;-80
2022/04/16 11:36:32;;;;;;;2.08;1.20;;;25.20;84.10;;;;;;5075753;28;20506;-82
2022/04/16 11:39:00;;;;;;;3.13;1.38;;;25.50;83.20;;;;;;5079421;28;20052;-84
2022/04/16 11:41:28;;;;;;;4.00;1.40;;;25.50;83.20;;;;;;5082604;28;20119;-84
2022/04/16 11:43:58;;;;;;;2.88;1.52;;;25.40;82.50;;;;;;5083681;28;20054;-84
2022/04/16 11:46:27;;;;;;;2.95;1.45;;;25.70;82.20;;;;;;5080210;28;20533;-84
2022/04/16 11:49:00;;;;;;;2.05;1.40;;;26.00;81.10;;;;;;5081313;28;20390;-84
2022/04/16 11:51:29;;;;;;;2.28;1.50;;;25.90;82.30;;;;;;5062869;28;20048;-84
2022/04/16 11:53:57;;;;;;;2.10;1.30;;;25.90;81.10;;;;;;5081182;28;20075;-83
2022/04/16 11:56:27;;;;;;;3.15;1.30;;;26.10;80.70;;;;;;5066212;28;20414;-83
2022/04/16 11:58:55;;;;;;;2.45;1.42;;;26.10;81.80;;;;;;5082968;28;20059;-83
2022/04/16 12:01:24;;;;;;;2.92;1.38;;;25.90;81.50;;;;;;5082144;28;20062;-83
2022/04/16 12:03:52;;;;;;;3.13;1.40;;;26.20;81.10;;;;;;5060079;28;20110;-83
2022/04/16 12:06:23;;;;;;;2.58;1.30;;;26.20;79.80;;;;;;5075764;28;20037;-82
2022/04/16 12:08:54;;;;;;;2.00;1.38;;;26.10;79.80;;;;;;5082072;28;20167;-82
2022/04/16 12:11:22;;;;;;;3.45;1.70;;;26.00;80.00;;;;;;5082322;28;20036;-83
2022/04/16 12:13:54;;;;;;;3.30;1.60;;;26.10;80.50;;;;;;5084867;28;20584;-81
2022/04/16 12:16:23;;;;;;;3.63;1.67;;;26.00;80.80;;;;;;5066392;28;20048;-82
2022/04/16 12:18:53;;;;;;;2.70;1.92;;;26.00;80.20;;;;;;5085774;28;20094;-81
2022/04/16 12:21:22;;;;;;;1.80;1.30;;;26.20;80.10;;;;;;5079059;28;20098;-82
2022/04/16 12:23:51;;;;;;;4.38;1.60;;;26.20;80.20;;;;;;5077372;28;20048;-82
2022/04/16 12:26:19;;;;;;;1.75;1.20;;;26.40;80.50;;;;;;5078532;28;20038;-82
2022/04/16 12:28:51;;;;;;;1.77;1.30;;;26.50;80.10;;;;;;5076797;28;20051;-82
2022/04/16 12:31:26;;;;;;;3.83;1.92;;;26.70;80.00;;;;;;5074468;28;20508;-82
2022/04/16 12:33:55;;;;;;;3.55;1.58;;;26.70;80.70;;;;;;5079665;28;20143;-83
2022/04/16 12:36:25;;;;;;;4.05;2.58;;;26.50;80.80;;;;;;5082515;28;20342;-82
2022/04/16 12:38:54;;;;;;;2.33;2.10;;;26.50;80.90;;;;;;5088445;28;20075;-82
2022/04/16 12:41:22;;;;;;;2.05;1.50;;;26.60;81.30;;;;;;5071119;28;20473;-82
2022/04/16 12:43:50;;;;;;;4.90;1.45;;;26.70;80.60;;;;;;5088290;28;20071;-86
2022/04/16 12:46:23;;;;;;;2.25;1.45;;;26.60;80.80;;;;;;5085525;28;20040;-83
2022/04/16 12:48:52;;;;;;;3.33;1.48;;;26.60;80.90;;;;;;5080333;28;20041;-85
2022/04/16 12:51:20;;;;;;;3.75;1.58;;;26.40;80.20;;;;;;5082326;28;20120;-83
2022/04/16 12:53:50;;;;;;;6.85;1.30;;;26.50;80.30;;;;;;5087869;28;20125;-83
2022/04/16 12:56:18;;;;;;;2.63;1.33;;;26.60;80.20;;;;;;5087584;28;20565;-82
2022/04/16 12:58:46;;;;;;;3.78;1.60;;;26.50;80.80;;;;;;5083996;28;21490;-82
2022/04/16 13:01:16;;;;;;;4.53;1.38;;;26.40;81.50;;;;;;5083991;28;20048;-84
2022/04/16 13:03:44;;;;;;;5.05;1.27;;;26.40;80.80;;;;;;5082441;28;20389;-85
2022/04/16 13:06:13;;;;;;;1.80;1.15;;;26.50;80.30;;;;;;5069462;28;20639;-83
2022/04/16 13:08:41;;;;;;;2.65;1.08;;;26.60;79.50;;;;;;5083598;28;20044;-83
2022/04/16 13:11:11;;;;;;;3.88;1.33;;;26.80;79.30;;;;;;5088890;28;20075;-84
2022/04/16 13:13:41;;;;;;;2.88;1.60;;;26.60;79.90;;;;;;5089302;28;20055;-85
2022/04/16 13:16:09;;;;;;;5.07;2.65;;;26.60;80.80;;;;;;5080101;28;20044;-85
2022/04/16 13:19:00;;;;;;;2.75;1.50;;;26.50;79.40;;;;;;5087154;28;20055;-84
2022/04/16 13:21:28;;;;;;;4.10;1.65;;;26.50;79.40;;;;;;5007641;28;20065;-85